createdAt,value
2018-07-10T12:46:51.654Z,19.70
2018-07-10T12:47:51.805Z,19.67
2018-07-10T12:48:51.762Z,19.62
2018-07-10T12:49:51.739Z,19.55
2018-07-10T12:51:10.882Z,19.55
2018-07-10T12:52:12.085Z,19.66
2018-07-10T13:09:22.555Z,19.18
2018-07-10T13:10:23.865Z,19.08
2018-07-10T13:11:24.841Z,19.15
2018-07-10T13:12:24.825Z,19.18
2018-07-10T13:12:58.581Z,19.15
2018-07-10T13:13:59.566Z,19.11
2018-07-10T13:14:59.705Z,19.00
2018-07-10T13:15:59.541Z,18.93
2018-07-10T13:16:59.643Z,18.78
2018-07-10T13:17:59.586Z,18.83
2018-07-10T13:18:59.512Z,18.78
2018-07-10T13:19:59.503Z,18.77
2018-07-10T13:20:59.495Z,18.83
2018-07-10T13:21:59.501Z,18.78
2018-07-10T13:22:59.479Z,18.80
2018-07-10T13:23:59.623Z,18.86
2018-07-10T13:24:59.455Z,18.83
2018-07-10T13:25:59.454Z,18.81
2018-07-10T13:26:59.478Z,18.84
2018-07-10T13:27:59.427Z,18.92
2018-07-10T13:28:59.417Z,19.00
2018-07-10T13:29:59.422Z,19.00
2018-07-10T13:30:59.392Z,19.04
2018-07-10T13:31:59.380Z,18.98
2018-07-10T13:32:59.357Z,18.96
2018-07-10T13:33:59.350Z,18.93
2018-07-10T13:34:59.375Z,18.83
2018-07-10T13:35:59.505Z,18.83
2018-07-10T13:36:59.330Z,18.88
2018-07-10T13:37:59.310Z,18.92
2018-07-10T13:38:59.285Z,18.93
2018-07-10T13:39:59.284Z,18.96
2018-07-10T13:40:59.357Z,18.80
2018-07-10T13:41:59.268Z,18.74
2018-07-10T13:42:59.374Z,18.55
2018-07-10T13:43:59.274Z,18.56
2018-07-10T13:44:59.232Z,18.49
2018-07-10T13:45:59.221Z,18.62
2018-07-10T13:46:59.214Z,18.58
2018-07-10T13:47:59.196Z,18.56
2018-07-10T13:48:59.181Z,18.56
2018-07-10T13:49:59.174Z,18.44
2018-07-10T13:50:59.285Z,18.43
2018-07-10T13:51:59.160Z,18.45
2018-07-10T13:52:59.135Z,18.37
2018-07-10T13:53:59.143Z,18.40
2018-07-10T13:54:59.119Z,18.60
2018-07-10T13:55:59.111Z,18.77
2018-07-10T13:56:59.201Z,18.78
2018-07-10T13:57:59.087Z,18.92
2018-07-10T13:58:59.069Z,19.08
2018-07-10T13:59:59.060Z,19.21
2018-07-10T14:00:59.053Z,19.33
2018-07-10T14:01:59.042Z,19.36
2018-07-10T14:02:59.024Z,19.37
2018-07-10T14:03:59.013Z,19.51
2018-07-10T14:04:59.220Z,19.62
2018-07-10T14:05:59.047Z,19.74
2018-07-10T14:06:59.002Z,20.10
2018-07-10T14:07:59.059Z,20.19
2018-07-10T14:08:58.963Z,20.04
2018-07-10T14:09:58.977Z,20.14
2018-07-10T14:10:58.956Z,20.10
2018-07-10T14:11:59.041Z,20.26
2018-07-10T14:12:58.930Z,20.48
2018-07-10T14:13:58.913Z,20.51
2018-07-10T14:14:58.963Z,20.69
2018-07-10T14:15:58.899Z,20.40
2018-07-10T14:16:58.876Z,20.31
2018-07-10T14:17:58.855Z,20.29
2018-07-10T14:18:58.851Z,20.36
2018-07-10T14:19:59.088Z,20.39
2018-07-10T14:20:58.829Z,20.51
2018-07-10T14:21:58.831Z,20.43
2018-07-10T14:22:58.828Z,20.44
2018-07-10T14:23:58.792Z,20.39
2018-07-10T14:24:58.787Z,20.41
2018-07-10T14:25:58.778Z,20.37
2018-07-10T14:26:59.877Z,20.48
2018-07-10T14:27:58.762Z,20.48
2018-07-10T14:28:58.741Z,20.63
2018-07-10T14:29:58.728Z,20.67
2018-07-10T14:30:58.728Z,20.82
2018-07-10T14:31:58.732Z,20.95
2018-07-10T14:32:58.716Z,20.93
2018-07-10T14:33:58.684Z,21.02
2018-07-10T14:34:58.673Z,21.17
2018-07-10T14:35:58.669Z,21.30
2018-07-10T14:36:58.661Z,21.27
2018-07-10T14:37:58.695Z,21.48
2018-07-10T14:38:58.647Z,21.48
2018-07-10T14:39:58.620Z,21.55
2018-07-10T14:40:58.611Z,21.61
2018-07-10T14:41:58.609Z,21.77
2018-07-10T14:42:58.600Z,21.96
2018-07-10T14:43:58.584Z,22.06
2018-07-10T14:44:58.579Z,22.07
2018-07-10T14:45:58.556Z,22.17
2018-07-10T14:46:58.563Z,22.20
2018-07-10T14:47:58.527Z,22.25
2018-07-10T14:48:58.522Z,22.29
2018-07-10T14:49:58.505Z,22.26
2018-07-10T14:50:58.567Z,22.38
2018-07-10T14:51:58.503Z,22.39
2018-07-10T14:52:58.542Z,22.45
2018-07-10T14:53:58.480Z,22.50
2018-07-10T14:54:58.457Z,22.53
2018-07-10T14:55:58.574Z,22.43
2018-07-10T14:56:58.439Z,22.36
2018-07-10T14:57:58.426Z,22.38
2018-07-10T14:58:58.586Z,22.28
2018-07-10T14:59:58.404Z,22.36
2018-07-10T15:00:58.551Z,22.50
2018-07-10T15:01:58.388Z,22.62
2018-07-10T15:02:58.495Z,22.62
2018-07-10T15:03:58.358Z,22.50
2018-07-10T15:04:58.463Z,22.28
2018-07-10T15:05:58.336Z,22.22
2018-07-10T15:06:58.337Z,22.33
2018-07-10T15:07:58.336Z,22.44
2018-07-10T15:08:58.317Z,22.60
2018-07-10T15:09:58.292Z,22.75
2018-07-10T15:10:58.401Z,22.80
2018-07-10T15:11:58.289Z,22.94
2018-07-10T15:12:58.272Z,22.73
2018-07-10T15:13:58.333Z,22.36
2018-07-10T15:14:58.549Z,22.35
2018-07-10T15:15:58.226Z,22.33
2018-07-10T15:16:58.219Z,22.30
2018-07-10T15:17:58.278Z,22.44
2018-07-10T15:18:58.211Z,22.48
2018-07-10T15:19:58.193Z,22.59
2018-07-10T15:20:58.172Z,22.66
2018-07-10T15:21:58.163Z,22.47
2018-07-10T15:22:58.152Z,22.35
2018-07-10T15:23:58.158Z,22.30
2018-07-10T15:24:58.129Z,22.15
2018-07-10T15:25:58.123Z,22.11
2018-07-10T15:26:58.125Z,21.95
2018-07-10T15:27:58.206Z,21.82
2018-07-10T15:28:58.086Z,21.60
2018-07-10T15:29:58.077Z,21.50
2018-07-10T15:30:58.068Z,21.36
2018-07-10T15:31:58.076Z,21.21
2018-07-10T15:32:58.051Z,21.21
2018-07-10T15:33:58.037Z,21.09
2018-07-10T15:34:58.020Z,21.07
2018-07-10T15:35:58.094Z,21.05
2018-07-10T15:36:58.011Z,20.88
2018-07-10T15:37:58.540Z,20.90
2018-07-10T15:38:57.977Z,20.78
2018-07-10T15:39:57.971Z,20.74
2018-07-10T15:40:58.086Z,20.77
2018-07-10T15:41:57.962Z,20.65
2018-07-10T15:42:57.951Z,20.65
2018-07-10T15:43:58.025Z,20.63
2018-07-10T15:44:57.911Z,20.56
2018-07-10T15:45:58.025Z,20.51
2018-07-10T15:46:57.886Z,20.52
2018-07-10T15:47:57.873Z,20.60
2018-07-10T15:48:57.880Z,20.67
2018-07-10T15:49:58.252Z,20.62
2018-07-10T15:50:57.847Z,20.66
2018-07-10T15:51:57.828Z,20.52
2018-07-10T15:52:57.817Z,20.40
2018-07-10T15:53:57.935Z,20.32
2018-07-10T15:54:57.808Z,20.19
2018-07-10T15:55:57.788Z,20.00
2018-07-10T15:56:57.799Z,19.85
2018-07-10T15:57:57.764Z,19.85
2018-07-10T15:58:57.755Z,19.79
2018-07-10T15:59:57.740Z,19.81
2018-07-10T16:00:57.733Z,19.84
2018-07-10T16:01:57.722Z,20.03
2018-07-10T16:02:57.713Z,20.14
2018-07-10T16:03:57.698Z,20.18
2018-07-10T16:04:57.805Z,20.09
2018-07-10T16:05:57.749Z,20.07
2018-07-10T16:06:57.807Z,20.04
2018-07-10T16:07:57.673Z,19.88
2018-07-10T16:08:57.655Z,19.79
2018-07-10T16:09:57.634Z,19.71
2018-07-10T16:10:57.622Z,19.67
2018-07-10T16:11:57.616Z,19.51
2018-07-10T16:12:57.753Z,19.54
2018-07-10T16:13:57.591Z,19.33
2018-07-10T16:14:57.588Z,19.27
2018-07-10T16:15:57.576Z,19.19
2018-07-10T16:16:57.567Z,19.15
2018-07-10T16:17:57.696Z,19.08
2018-07-10T16:18:57.667Z,18.95
2018-07-10T16:19:58.044Z,18.80
2018-07-10T16:20:57.524Z,18.83
2018-07-10T16:21:57.503Z,18.74
2018-07-10T16:22:57.498Z,18.59
2018-07-10T16:23:57.481Z,18.44
2018-07-10T16:24:57.485Z,18.40
2018-07-10T16:25:57.561Z,18.37
2018-07-10T16:26:57.468Z,18.23
2018-07-10T16:27:57.439Z,18.11
2018-07-10T16:28:57.439Z,18.07
2018-07-10T16:29:57.420Z,17.90
2018-07-10T16:30:57.409Z,17.83
2018-07-10T16:31:57.391Z,17.80
2018-07-10T16:32:57.392Z,17.82
2018-07-10T16:33:57.451Z,17.74
2018-07-10T16:34:57.359Z,17.79
2018-07-10T16:35:57.352Z,17.82
2018-07-10T16:36:57.339Z,17.82
2018-07-10T16:37:57.460Z,17.57
2018-07-10T16:38:57.313Z,17.67
2018-07-10T16:39:57.303Z,17.63
2018-07-10T16:40:57.428Z,17.46
2018-07-10T16:42:00.219Z,17.49
2018-07-10T16:42:57.276Z,17.49
2018-07-10T16:43:57.373Z,17.49
2018-07-10T16:44:57.399Z,17.54
2018-07-10T16:45:57.364Z,17.44
2018-07-10T16:46:57.236Z,17.42
2018-07-10T16:47:57.543Z,17.48
2018-07-10T16:48:57.200Z,17.42
2018-07-10T16:49:57.199Z,17.31
2018-07-10T16:50:57.221Z,17.39
2018-07-10T16:51:57.292Z,17.34
2018-07-10T16:52:57.172Z,17.30
2018-07-10T16:53:57.158Z,17.23
2018-07-10T16:54:57.149Z,17.20
2018-07-10T16:55:57.250Z,17.20
2018-07-10T16:56:57.175Z,17.16
2018-07-10T16:57:57.110Z,17.12
2018-07-10T16:58:57.215Z,16.99
2018-07-10T16:59:57.084Z,17.09
2018-07-10T17:00:57.203Z,17.12
2018-07-10T17:01:57.169Z,17.11
2018-07-10T17:02:57.082Z,17.26
2018-07-10T17:03:57.041Z,17.44
2018-07-10T17:04:57.224Z,17.52
2018-07-10T17:05:57.015Z,17.64
2018-07-10T17:06:57.078Z,17.64
2018-07-10T17:07:57.003Z,17.72
2018-07-10T17:08:56.986Z,17.74
2018-07-10T17:09:57.006Z,17.87
2018-07-10T17:10:56.977Z,17.97
2018-07-10T17:11:57.001Z,18.04
2018-07-10T17:12:56.944Z,18.22
2018-07-10T17:13:56.941Z,18.31
2018-07-10T17:14:57.034Z,18.49
2018-07-10T17:15:56.907Z,18.40
2018-07-10T17:16:56.895Z,18.49
2018-07-10T17:17:56.895Z,18.53
2018-07-10T17:18:57.038Z,18.59
2018-07-10T17:19:56.943Z,18.40
2018-07-10T17:20:56.863Z,18.41
2018-07-10T17:21:56.841Z,18.40
2018-07-10T17:22:56.831Z,18.31
2018-07-10T17:23:56.820Z,18.11
2018-07-10T17:24:56.806Z,18.11
2018-07-10T17:25:56.918Z,18.07
2018-07-10T17:26:56.793Z,18.16
2018-07-10T17:27:56.789Z,18.13
2018-07-10T17:28:56.875Z,18.13
2018-07-10T17:29:56.916Z,18.19
2018-07-10T17:30:56.746Z,18.11
2018-07-10T17:31:56.744Z,18.11
2018-07-10T17:32:56.855Z,18.08
2018-07-10T17:33:56.717Z,18.05
2018-07-10T17:34:56.702Z,17.92
2018-07-10T17:35:56.691Z,17.86
2018-07-10T17:36:56.764Z,17.80
2018-07-10T17:37:56.771Z,17.68
2018-07-10T17:38:56.657Z,17.57
2018-07-10T17:39:56.642Z,17.51
2018-07-10T17:40:56.761Z,17.30
2018-07-10T17:41:56.703Z,17.31
2018-07-10T17:42:56.610Z,17.27
2018-07-10T17:43:56.700Z,17.23
2018-07-10T17:44:56.705Z,17.27
2018-07-10T17:45:56.581Z,17.27
2018-07-10T17:46:56.566Z,17.19
2018-07-10T17:47:56.560Z,17.12
2018-07-10T17:48:56.545Z,17.06
2018-07-10T17:49:56.537Z,16.93
2018-07-10T17:50:56.528Z,17.01
2018-07-10T17:51:56.514Z,17.02
2018-07-10T17:52:56.501Z,17.04
2018-07-10T17:53:56.489Z,17.11
2018-07-10T17:54:56.477Z,17.15
2018-07-10T17:55:56.480Z,17.23
2018-07-10T17:56:56.476Z,17.27
2018-07-10T17:57:56.481Z,17.34
2018-07-10T17:58:56.452Z,17.31
2018-07-10T17:59:56.421Z,17.44
2018-07-10T18:00:56.431Z,17.44
2018-07-10T18:01:56.526Z,17.56
2018-07-10T18:02:56.406Z,17.56
2018-07-10T18:03:56.379Z,17.46
2018-07-10T18:04:56.488Z,17.51
2018-07-10T18:05:56.393Z,17.51
2018-07-10T18:06:56.341Z,17.42
2018-07-10T18:07:56.338Z,17.57
2018-07-10T18:08:56.323Z,17.51
2018-07-10T18:09:56.314Z,17.57
2018-07-10T18:10:56.422Z,17.70
2018-07-10T18:11:56.294Z,17.67
2018-07-10T18:12:56.279Z,17.72
2018-07-10T18:13:56.276Z,17.83
2018-07-10T18:14:56.420Z,17.78
2018-07-10T18:15:56.251Z,17.80
2018-07-10T18:16:56.397Z,17.72
2018-07-10T18:17:56.225Z,17.76
2018-07-10T18:18:56.279Z,17.76
2018-07-10T18:19:56.207Z,17.76
2018-07-10T18:20:56.293Z,17.82
2018-07-10T18:21:56.191Z,17.64
2018-07-10T18:22:56.442Z,17.65
2018-07-10T18:23:56.163Z,17.63
2018-07-10T18:24:56.255Z,17.60
2018-07-10T18:25:56.136Z,17.54
2018-07-10T18:26:56.241Z,17.42
2018-07-10T18:27:56.182Z,17.57
2018-07-10T18:28:56.237Z,17.42
2018-07-10T18:29:56.276Z,17.49
2018-07-10T18:30:56.169Z,17.56
2018-07-10T18:31:56.193Z,17.56
2018-07-10T18:32:56.074Z,17.59
2018-07-10T18:33:56.166Z,17.63
2018-07-10T18:34:56.201Z,17.68
2018-07-10T18:35:56.025Z,17.56
2018-07-10T18:36:56.127Z,17.52
2018-07-10T18:37:56.128Z,17.42
2018-07-10T18:38:56.101Z,17.46
2018-07-10T18:39:55.981Z,17.49
2018-07-10T18:40:55.980Z,17.51
2018-07-10T18:41:55.977Z,17.48
2018-07-10T18:42:55.953Z,17.38
2018-07-10T18:43:56.045Z,17.38
2018-07-10T18:44:55.929Z,17.31
2018-07-10T18:45:55.912Z,17.30
2018-07-10T18:46:55.905Z,17.34
2018-07-10T18:47:55.911Z,17.31
2018-07-10T18:48:55.894Z,17.33
2018-07-10T18:49:55.874Z,17.23
2018-07-10T18:50:55.973Z,17.23
2018-07-10T18:51:55.852Z,17.14
2018-07-10T18:52:55.956Z,17.19
2018-07-10T18:53:55.952Z,17.12
2018-07-10T18:54:55.833Z,17.05
2018-07-10T18:55:55.802Z,17.05
2018-07-10T18:56:55.835Z,17.08
2018-07-10T18:57:55.893Z,17.09
2018-07-10T18:58:55.851Z,17.02
2018-07-10T18:59:55.777Z,16.94
2018-07-10T19:00:55.749Z,16.96
2018-07-10T19:01:55.785Z,16.99
2018-07-10T19:02:55.728Z,16.93
2018-07-10T19:03:55.784Z,16.90
2018-07-10T19:04:55.706Z,16.93
2018-07-10T19:05:55.807Z,16.90
2018-07-10T19:06:55.681Z,16.83
2018-07-10T19:07:55.683Z,16.90
2018-07-10T19:08:55.679Z,16.81
2018-07-10T19:09:55.688Z,16.83
2018-07-10T19:10:55.639Z,16.81
2018-07-10T19:11:55.803Z,16.86
2018-07-10T19:12:55.617Z,16.78
2018-07-10T19:13:55.620Z,16.74
2018-07-10T19:14:55.594Z,16.71
2018-07-10T19:15:55.585Z,16.78
2018-07-10T19:16:55.679Z,16.69
2018-07-10T19:17:55.706Z,16.74
2018-07-10T19:18:55.551Z,16.71
2018-07-10T19:19:55.544Z,16.61
2018-07-10T19:20:55.639Z,16.60
2018-07-10T19:21:55.522Z,16.57
2018-07-10T19:22:55.515Z,16.60
2018-07-10T19:23:55.504Z,16.53
2018-07-10T19:24:55.485Z,16.47
2018-07-10T19:25:55.475Z,16.47
2018-07-10T19:26:55.464Z,16.43
2018-07-10T19:27:55.455Z,16.29
2018-07-10T19:28:55.548Z,16.15
2018-07-10T19:29:55.430Z,16.05
2018-07-10T19:30:55.424Z,16.10
2018-07-10T19:31:55.403Z,15.95
2018-07-10T19:32:55.391Z,15.95
2018-07-10T19:33:55.387Z,15.86
2018-07-10T19:34:55.401Z,15.88
2018-07-10T19:35:55.441Z,15.90
2018-07-10T19:36:55.356Z,15.92
2018-07-10T19:37:55.342Z,15.95
2018-07-10T19:38:55.360Z,15.92
2018-07-10T19:39:55.319Z,15.91
2018-07-10T19:40:55.305Z,15.82
2018-07-10T19:41:55.299Z,15.88
2018-07-10T19:42:55.282Z,15.79
2018-07-10T19:43:55.273Z,15.72
2018-07-10T19:44:55.260Z,15.75
2018-07-10T19:45:55.250Z,15.76
2018-07-10T19:46:55.238Z,15.76
2018-07-10T19:47:55.227Z,15.75
2018-07-10T19:48:55.324Z,15.80
2018-07-10T19:49:55.209Z,15.72
2018-07-10T19:50:55.210Z,15.79
2018-07-10T19:51:55.307Z,15.79
2018-07-10T19:52:55.305Z,15.76
2018-07-10T19:53:55.161Z,15.64
2018-07-10T19:54:55.163Z,15.65
2018-07-10T19:55:55.142Z,15.75
2018-07-10T19:56:55.130Z,15.68
2018-07-10T19:57:55.118Z,15.72
2018-07-10T19:58:55.117Z,15.76
2018-07-10T19:59:55.112Z,15.75
2018-07-10T20:00:55.226Z,15.73
2018-07-10T20:01:55.087Z,15.73
2018-07-10T20:02:55.105Z,15.73
2018-07-10T20:03:55.059Z,15.75
2018-07-10T20:04:55.057Z,15.72
2018-07-10T20:05:55.031Z,15.73
2018-07-10T20:06:55.111Z,15.75
2018-07-10T20:07:55.016Z,15.79
2018-07-10T20:08:55.104Z,15.82
2018-07-10T20:09:54.991Z,15.76
2018-07-10T20:10:55.081Z,15.86
2018-07-10T20:11:55.105Z,15.77
2018-07-10T20:12:54.970Z,15.90
2018-07-10T20:13:54.944Z,15.80
2018-07-10T20:14:54.936Z,15.80
2018-07-10T20:15:54.919Z,15.94
2018-07-10T20:16:54.909Z,15.95
2018-07-10T20:17:54.964Z,15.88
2018-07-10T20:18:54.989Z,15.88
2018-07-10T20:19:55.185Z,15.92
2018-07-10T20:20:54.879Z,15.90
2018-07-10T20:21:54.858Z,15.94
2018-07-10T20:22:54.849Z,15.90
2018-07-10T20:23:54.875Z,15.91
2018-07-10T20:24:54.925Z,15.94
2018-07-10T20:25:54.811Z,15.94
2018-07-10T20:26:54.799Z,15.80
2018-07-10T20:27:54.803Z,15.75
2018-07-10T20:28:54.814Z,15.75
2018-07-10T20:29:54.811Z,15.72
2018-07-10T20:30:54.912Z,15.75
2018-07-10T20:31:54.740Z,15.75
2018-07-10T20:32:54.771Z,15.73
2018-07-10T20:33:54.716Z,15.70
2018-07-10T20:34:54.727Z,15.72
2018-07-10T20:35:54.697Z,15.64
2018-07-10T20:36:54.693Z,15.59
2018-07-10T20:37:54.677Z,15.54
2018-07-10T20:38:54.678Z,15.52
2018-07-10T20:39:54.665Z,15.47
2018-07-10T20:40:54.647Z,15.39
2018-07-10T20:41:54.644Z,15.43
2018-07-10T20:42:54.626Z,15.42
2018-07-10T20:43:54.611Z,15.28
2018-07-10T20:44:54.704Z,15.43
2018-07-10T20:45:54.742Z,15.31
2018-07-10T20:46:54.579Z,15.22
2018-07-10T20:47:56.449Z,15.24
2018-07-10T20:48:54.597Z,15.19
2018-07-10T20:49:54.588Z,15.11
2018-07-10T20:50:54.675Z,15.06
2018-07-10T20:51:54.524Z,15.03
2018-07-10T20:52:54.514Z,14.99
2018-07-10T20:53:54.500Z,14.99
2018-07-10T20:54:54.499Z,14.97
2018-07-10T20:55:54.477Z,15.10
2018-07-10T20:56:54.464Z,15.03
2018-07-10T20:57:54.452Z,15.02
2018-07-10T20:58:54.448Z,15.14
2018-07-10T20:59:54.443Z,15.09
2018-07-10T21:00:54.431Z,15.11
2018-07-10T21:01:54.424Z,15.03
2018-07-10T21:02:54.467Z,15.04
2018-07-10T21:03:54.386Z,15.00
2018-07-10T21:04:54.376Z,15.10
2018-07-10T21:05:54.371Z,15.10
2018-07-10T21:06:54.352Z,15.18
2018-07-10T21:07:54.452Z,15.22
2018-07-10T21:08:54.334Z,15.24
2018-07-10T21:09:54.327Z,15.24
2018-07-10T21:10:54.314Z,15.35
2018-07-10T21:11:54.299Z,15.35
2018-07-10T21:12:54.398Z,15.40
2018-07-10T21:13:54.291Z,15.37
2018-07-10T21:14:54.272Z,15.42
2018-07-10T21:15:54.260Z,15.39
2018-07-10T21:16:54.279Z,15.52
2018-07-10T21:17:54.258Z,15.43
2018-07-10T21:18:54.255Z,15.47
2018-07-10T21:19:54.218Z,15.49
2018-07-10T21:20:54.199Z,15.61
2018-07-10T21:21:54.196Z,15.58
2018-07-10T21:22:54.181Z,15.59
2018-07-10T21:23:54.171Z,15.59
2018-07-10T21:24:54.156Z,15.57
2018-07-10T21:25:54.159Z,15.61
2018-07-10T21:26:55.269Z,15.68
2018-07-10T21:27:54.129Z,15.64
2018-07-10T21:28:54.128Z,15.62
2018-07-10T21:29:54.101Z,15.62
2018-07-10T21:30:54.100Z,15.67
2018-07-10T21:31:54.082Z,15.72
2018-07-10T21:32:54.063Z,15.65
2018-07-10T21:33:54.112Z,15.75
2018-07-10T21:34:54.056Z,15.72
2018-07-10T21:35:54.035Z,15.70
2018-07-10T21:36:54.032Z,15.72
2018-07-10T21:37:54.014Z,15.75
2018-07-10T21:38:54.063Z,15.72
2018-07-10T21:39:53.986Z,15.65
2018-07-10T21:40:54.007Z,15.65
2018-07-10T21:41:53.991Z,15.75
2018-07-10T21:42:53.952Z,15.72
2018-07-10T21:43:53.943Z,15.73
2018-07-10T21:44:53.940Z,15.72
2018-07-10T21:45:53.921Z,15.72
2018-07-10T21:46:53.939Z,15.73
2018-07-10T21:47:53.903Z,15.70
2018-07-10T21:48:53.997Z,15.72
2018-07-10T21:49:53.890Z,15.68
2018-07-10T21:50:53.865Z,15.75
2018-07-10T21:51:53.863Z,15.68
2018-07-10T21:52:53.847Z,15.73
2018-07-10T21:53:53.872Z,15.68
2018-07-10T21:54:53.821Z,15.72
2018-07-10T21:55:53.812Z,15.75
2018-07-10T21:56:53.802Z,15.70
2018-07-10T21:57:53.787Z,15.72
2018-07-10T21:58:53.777Z,15.73
2018-07-10T21:59:53.770Z,15.73
2018-07-10T22:00:53.758Z,15.70
2018-07-10T22:01:53.762Z,15.64
2018-07-10T22:02:53.736Z,15.72
2018-07-10T22:03:53.741Z,15.73
2018-07-10T22:04:53.829Z,15.62
2018-07-10T22:05:53.701Z,15.77
2018-07-10T22:06:53.696Z,15.70
2018-07-10T22:07:53.674Z,15.73
2018-07-10T22:08:53.680Z,15.75
2018-07-10T22:09:53.656Z,15.75
2018-07-10T22:10:53.648Z,15.72
2018-07-10T22:11:53.633Z,15.70
2018-07-10T22:12:53.628Z,15.72
2018-07-10T22:13:53.621Z,15.62
2018-07-10T22:14:53.598Z,15.65
2018-07-10T22:15:53.589Z,15.70
2018-07-10T22:16:53.685Z,15.72
2018-07-10T22:17:53.564Z,15.61
2018-07-10T22:18:53.562Z,15.67
2018-07-10T22:19:53.547Z,15.61
2018-07-10T22:20:53.531Z,15.59
2018-07-10T22:21:53.524Z,15.55
2018-07-10T22:22:53.516Z,15.59
2018-07-10T22:23:53.498Z,15.58
2018-07-10T22:24:53.600Z,15.52
2018-07-10T22:25:54.465Z,15.49
2018-07-10T22:26:53.464Z,15.49
2018-07-10T22:27:53.509Z,15.33
2018-07-10T22:28:53.448Z,15.29
2018-07-10T22:29:53.454Z,15.22
2018-07-10T22:30:53.433Z,15.24
2018-07-10T22:31:53.481Z,15.31
2018-07-10T22:32:53.524Z,15.17
2018-07-10T22:33:53.388Z,15.11
2018-07-10T22:34:53.390Z,15.10
2018-07-10T22:35:53.380Z,15.09
2018-07-10T22:36:53.420Z,14.99
2018-07-10T22:37:53.344Z,15.02
2018-07-10T22:38:53.331Z,15.06
2018-07-10T22:39:53.465Z,14.99
2018-07-10T22:40:53.329Z,14.97
2018-07-10T22:41:53.300Z,15.04
2018-07-10T22:42:53.291Z,14.97
2018-07-10T22:43:53.277Z,14.97
2018-07-10T22:44:53.268Z,14.97
2018-07-10T22:45:53.258Z,14.96
2018-07-10T22:46:53.319Z,14.97
2018-07-10T22:47:53.251Z,14.97
2018-07-10T22:48:53.365Z,14.88
2018-07-10T22:49:53.220Z,14.84
2018-07-10T22:50:53.207Z,14.85
2018-07-10T22:51:53.191Z,14.85
2018-07-10T22:52:53.182Z,14.84
2018-07-10T22:53:53.210Z,14.88
2018-07-10T22:54:53.156Z,14.88
2018-07-10T22:55:53.204Z,14.77
2018-07-10T22:56:53.143Z,14.72
2018-07-10T22:57:53.130Z,14.70
2018-07-10T22:58:53.125Z,14.77
2018-07-10T22:59:53.101Z,14.72
2018-07-10T23:00:53.091Z,14.77
2018-07-10T23:01:53.085Z,14.68
2018-07-10T23:02:53.189Z,14.65
2018-07-10T23:03:53.062Z,14.66
2018-07-10T23:04:53.064Z,14.60
2018-07-10T23:05:53.034Z,14.68
2018-07-10T23:06:53.023Z,14.62
2018-07-10T23:07:53.016Z,14.65
2018-07-10T23:08:53.102Z,14.60
2018-07-10T23:09:52.992Z,14.65
2018-07-10T23:10:52.978Z,14.55
2018-07-10T23:11:52.980Z,14.55
2018-07-10T23:12:53.070Z,14.48
2018-07-10T23:13:52.953Z,14.44
2018-07-10T23:14:52.939Z,14.48
2018-07-10T23:15:52.931Z,14.41
2018-07-10T23:16:52.912Z,14.44
2018-07-10T23:17:52.914Z,14.44
2018-07-10T23:18:52.894Z,14.33
2018-07-10T23:19:52.879Z,14.35
2018-07-10T23:20:52.995Z,14.36
2018-07-10T23:21:53.026Z,14.30
2018-07-10T23:22:52.849Z,14.28
2018-07-10T23:23:52.848Z,14.25
2018-07-10T23:24:52.830Z,14.25
2018-07-10T23:25:52.817Z,14.12
2018-07-10T23:26:52.883Z,14.10
2018-07-10T23:27:52.801Z,14.14
2018-07-10T23:28:52.813Z,14.03
2018-07-10T23:29:52.790Z,14.05
2018-07-10T23:30:52.760Z,13.95
2018-07-10T23:31:52.761Z,13.99
2018-07-10T23:32:52.737Z,13.86
2018-07-10T23:33:52.729Z,13.89
2018-07-10T23:34:52.713Z,13.85
2018-07-10T23:35:52.709Z,13.86
2018-07-10T23:36:52.693Z,13.85
2018-07-10T23:37:52.687Z,13.79
2018-07-10T23:38:52.673Z,13.78
2018-07-10T23:39:52.663Z,13.78
2018-07-10T23:40:52.808Z,13.75
2018-07-10T23:41:52.702Z,13.60
2018-07-10T23:42:52.629Z,13.52
2018-07-10T23:43:52.613Z,13.50
2018-07-10T23:44:52.738Z,13.41
2018-07-10T23:45:52.691Z,13.30
2018-07-10T23:46:52.587Z,13.28
2018-07-10T23:47:52.588Z,13.28
2018-07-10T23:48:52.563Z,13.27
2018-07-10T23:49:52.550Z,13.25
2018-07-10T23:50:52.538Z,13.28
2018-07-10T23:51:52.630Z,13.27
2018-07-10T23:52:52.521Z,13.22
2018-07-10T23:53:52.507Z,13.11
2018-07-10T23:54:52.516Z,13.15
2018-07-10T23:55:52.589Z,13.19
2018-07-10T23:56:52.485Z,13.22
2018-07-10T23:57:52.459Z,13.12
2018-07-10T23:58:52.460Z,13.09
2018-07-10T23:59:52.435Z,13.05
